Time;durP1;ratioP1;P1;durP2;ratioP2;P2;SDS_P1;SDS_P2;PMS_P1;PMS_P2;Temp;Humidity;BMP_temperature;BMP_pressure;BME280_temperature;BME280_humidity;BME280_pressure;Samples;Min_cycle;Max_cycle;Signal;HPM_P1;HPM_P2
2021/03/06 00:01:17;;;;;;;16.00;3.90;;;;;;;0.06;71.96;103511.88;5092902;28;20024;-40
2021/03/06 00:03:42;;;;;;;11.77;3.53;;;;;;;0.16;73.81;103510.31;5093422;28;20085;-40
2021/03/06 00:06:09;;;;;;;8.13;3.37;;;;;;;0.14;72.27;103512.22;5093467;28;20024;-40
2021/03/06 00:08:34;;;;;;;9.75;3.63;;;;;;;0.18;72.21;103507.56;5091854;28;20055;-40
2021/03/06 00:11:00;;;;;;;8.93;3.33;;;;;;;0.17;71.90;103508.50;5093378;28;20032;-40
2021/03/06 00:13:25;;;;;;;8.40;3.50;;;;;;;0.13;72.72;103509.66;5095178;28;20478;-40
2021/03/06 00:15:50;;;;;;;12.80;3.43;;;;;;;0.09;72.52;103502.81;5097398;28;20451;-40
2021/03/06 00:18:16;;;;;;;9.90;3.27;;;;;;;0.16;72.95;103510.31;5097073;28;20063;-40
2021/03/06 00:20:41;;;;;;;7.63;2.90;;;;;;;0.17;72.72;103503.19;5095987;28;20044;-40
2021/03/06 00:23:07;;;;;;;9.50;3.00;;;;;;;0.17;72.23;103506.72;5096338;28;20024;-40
2021/03/06 00:25:32;;;;;;;8.13;3.47;;;;;;;0.10;72.08;103496.53;5096367;28;20031;-40
2021/03/06 00:27:57;;;;;;;10.37;3.63;;;;;;;0.17;72.80;103511.19;5096221;28;20468;-40
2021/03/06 00:30:23;;;;;;;11.70;3.40;;;;;;;0.09;72.18;103509.00;5097186;28;20065;-40
2021/03/06 00:32:48;;;;;;;10.32;2.90;;;;;;;0.07;71.84;103505.59;5096733;28;20028;-40
2021/03/06 00:35:14;;;;;;;9.10;3.43;;;;;;;0.04;72.73;103510.22;5095859;28;20043;-40
2021/03/06 00:37:40;;;;;;;5.32;2.92;;;;;;;0.05;73.08;103504.84;5096067;28;20132;-40
2021/03/06 00:40:08;;;;;;;13.90;3.85;;;;;;;-0.04;72.77;103508.06;5096436;28;20028;-40
2021/03/06 00:42:34;;;;;;;8.20;3.20;;;;;;;-0.03;74.75;103502.66;5096294;28;20464;-40
2021/03/06 00:44:59;;;;;;;9.70;2.85;;;;;;;-0.08;73.60;103507.41;5096902;28;20034;-39
2021/03/06 00:47:25;;;;;;;8.83;2.93;;;;;;;-0.04;74.18;103500.94;5095484;28;20046;-40
2021/03/06 00:49:50;;;;;;;8.43;3.17;;;;;;;-0.06;73.63;103497.50;5096490;28;20360;-40
2021/03/06 00:52:15;;;;;;;10.17;3.73;;;;;;;-0.09;72.73;103497.72;5096184;28;20054;-40
2021/03/06 00:54:41;;;;;;;8.47;3.00;;;;;;;-0.02;74.44;103504.34;5096446;28;20081;-40
2021/03/06 00:57:06;;;;;;;14.77;4.40;;;;;;;-0.10;73.95;103500.47;5096607;28;20020;-40
2021/03/06 00:59:31;;;;;;;6.80;3.40;;;;;;;-0.13;73.11;103500.66;5096674;28;20044;-40
2021/03/06 01:01:56;;;;;;;7.63;3.03;;;;;;;-0.17;73.72;103492.03;5095953;28;20035;-40
2021/03/06 01:04:22;;;;;;;9.77;3.60;;;;;;;-0.18;73.02;103487.66;5096363;28;20016;-40
2021/03/06 01:06:47;;;;;;;9.40;3.53;;;;;;;-0.20;73.85;103492.19;5096070;28;20024;-40
2021/03/06 01:09:13;;;;;;;12.73;2.90;;;;;;;-0.17;73.68;103507.13;5095777;28;20047;-40
2021/03/06 01:11:38;;;;;;;6.30;3.10;;;;;;;-0.18;73.06;103500.09;5095719;28;20059;-40
2021/03/06 01:14:04;;;;;;;6.13;3.00;;;;;;;-0.21;72.74;103493.16;5095604;28;20327;-40
2021/03/06 01:16:29;;;;;;;7.77;3.17;;;;;;;-0.22;72.87;103494.13;5095605;28;20031;-40
2021/03/06 01:18:54;;;;;;;9.20;3.07;;;;;;;-0.16;73.43;103496.38;5095652;28;20056;-40
2021/03/06 01:21:20;;;;;;;12.17;2.70;;;;;;;-0.23;72.85;103488.91;5095605;28;20028;-40
2021/03/06 01:23:46;;;;;;;10.40;3.10;;;;;;;-0.17;73.96;103493.81;5095001;28;20373;-40
2021/03/06 01:26:11;;;;;;;6.30;2.72;;;;;;;-0.18;74.11;103497.44;5094933;28;20111;-40
2021/03/06 01:28:36;;;;;;;5.80;2.53;;;;;;;-0.08;77.21;103483.47;5095425;28;20031;-40
2021/03/06 01:31:02;;;;;;;8.93;2.97;;;;;;;-0.22;73.32;103491.44;5095151;28;20024;-40
2021/03/06 01:33:27;;;;;;;7.90;3.00;;;;;;;-0.31;73.62;103492.03;5095620;28;20040;-40
2021/03/06 01:35:52;;;;;;;6.23;2.83;;;;;;;-0.40;71.90;103498.75;5095773;28;20028;-40
2021/03/06 01:38:18;;;;;;;12.57;3.30;;;;;;;-0.42;72.94;103494.50;5095475;28;20032;-40
2021/03/06 01:40:43;;;;;;;10.43;3.07;;;;;;;-0.53;72.32;103492.50;5094998;28;20082;-40
2021/03/06 01:43:11;;;;;;;5.37;2.87;;;;;;;-0.52;74.42;103488.88;5093740;28;20040;-40
2021/03/06 01:45:38;;;;;;;9.10;3.30;;;;;;;-0.57;73.26;103497.13;5095025;28;20040;-40
2021/03/06 01:48:05;;;;;;;8.43;2.97;;;;;;;-0.57;72.90;103483.00;5094939;28;20028;-40
2021/03/06 01:50:39;;;;;;;8.85;3.38;;;;;;;-0.58;73.91;103490.13;5095321;28;20028;-40
2021/03/06 01:53:09;;;;;;;5.22;2.70;;;;;;;-0.69;73.15;103491.69;5094841;28;20024;-40
2021/03/06 01:55:37;;;;;;;7.15;2.95;;;;;;;-0.81;73.31;103496.81;5094690;28;20028;-40
2021/03/06 01:58:04;;;;;;;10.15;3.20;;;;;;;-0.82;73.97;103495.13;5094843;28;20024;-39
2021/03/06 02:00:29;;;;;;;;;;;;;;;-0.68;72.13;103491.63;5095683;28;20056;-40
2021/03/06 02:02:56;;;;;;;7.97;2.78;;;;;;;-0.94;73.06;103494.97;5094715;28;19912;-39
2021/03/06 02:05:21;;;;;;;8.75;3.30;;;;;;;-0.89;73.95;103491.09;5093967;28;20039;-40
2021/03/06 02:07:47;;;;;;;10.43;3.40;;;;;;;-0.91;73.96;103493.00;5094659;28;20032;-40
2021/03/06 02:10:13;;;;;;;5.80;2.97;;;;;;;-0.89;73.89;103501.72;5095037;28;20054;-39
2021/03/06 02:12:54;;;;;;;6.13;2.90;;;;;;;-0.87;74.20;103497.19;5094608;28;20036;-40
2021/03/06 02:15:42;;;;;;;7.38;3.00;;;;;;;-0.93;73.70;103499.34;5094240;28;20488;-40
2021/03/06 02:18:13;;;;;;;8.75;3.28;;;;;;;-1.05;71.97;103499.13;5094440;28;20533;-40
2021/03/06 02:20:49;;;;;;;5.25;2.60;;;;;;;-1.04;73.78;103500.81;5094246;28;20036;-40
2021/03/06 02:23:42;;;;;;;4.43;2.37;;;;;;;-1.08;73.86;103499.28;5094485;28;20031;-40
2021/03/06 02:26:25;;;;;;;8.32;3.00;;;;;;;-1.05;74.16;103490.31;5094671;28;20289;-40
2021/03/06 02:29:07;;;;;;;6.68;3.13;;;;;;;-1.06;73.34;103499.22;5094838;28;20028;-40
2021/03/06 02:31:34;;;;;;;7.50;2.70;;;;;;;-0.97;74.21;103489.88;5094792;28;20480;-40
2021/03/06 02:34:04;;;;;;;7.60;2.97;;;;;;;-1.12;73.67;103488.97;5093974;28;20020;-40
2021/03/06 02:36:33;;;;;;;9.40;2.90;;;;;;;-1.15;74.80;103490.00;5094339;28;20467;-40
2021/03/06 02:39:01;;;;;;;7.03;3.20;;;;;;;-1.15;74.47;103494.44;5094456;28;20067;-40
2021/03/06 02:41:28;;;;;;;4.85;2.40;;;;;;;-1.11;75.67;103491.53;5094801;28;20429;-40
2021/03/06 02:43:56;;;;;;;6.80;2.95;;;;;;;-1.10;74.76;103487.06;5094583;28;20055;-40
2021/03/06 02:46:24;;;;;;;6.85;2.92;;;;;;;-1.15;74.10;103483.81;5093967;28;20051;-40
2021/03/06 02:48:50;;;;;;;7.53;3.05;;;;;;;-1.12;74.46;103481.00;5094495;28;20028;-40
2021/03/06 02:51:15;;;;;;;8.27;2.83;;;;;;;-1.10;75.64;103479.09;5093672;28;20097;-40
2021/03/06 02:53:41;;;;;;;7.47;2.60;;;;;;;-0.99;77.27;103474.00;5093896;28;20456;-40
2021/03/06 02:56:07;;;;;;;6.40;2.63;;;;;;;-1.02;74.22;103484.81;5093906;28;20035;-40
2021/03/06 02:59:02;;;;;;;7.88;2.55;;;;;;;-0.91;75.63;103477.06;5075229;28;20135;-40
2021/03/06 03:01:41;;;;;;;6.68;2.70;;;;;;;-0.95;77.24;103467.56;5093390;28;20047;-40
2021/03/06 03:04:19;;;;;;;7.72;2.72;;;;;;;-1.03;74.94;103475.13;5093798;28;20028;-40
2021/03/06 03:06:48;;;;;;;8.52;3.08;;;;;;;-0.97;75.52;103473.94;5093990;28;20104;-40
2021/03/06 03:09:25;;;;;;;8.05;3.13;;;;;;;-1.00;75.76;103474.09;5093612;28;20034;-40
2021/03/06 03:12:03;;;;;;;8.63;3.00;;;;;;;-0.98;75.63;103466.88;5094225;28;20047;-40
2021/03/06 03:14:35;;;;;;;9.18;3.10;;;;;;;-1.10;75.03;103469.31;5094175;28;20032;-40
2021/03/06 03:17:11;;;;;;;8.70;3.17;;;;;;;-1.02;75.51;103474.19;5093545;28;20028;-40
2021/03/06 03:19:55;;;;;;;5.35;2.83;;;;;;;-1.12;74.15;103468.56;5093565;28;20064;-48
2021/03/06 03:22:24;;;;;;;8.25;3.45;;;;;;;-1.22;74.86;103472.72;5093879;28;20028;-40
2021/03/06 03:24:51;;;;;;;8.70;3.20;;;;;;;-1.24;74.83;103471.09;5093779;28;20149;-40
2021/03/06 03:27:17;;;;;;;4.38;2.50;;;;;;;-1.28;75.52;103466.88;5093627;28;20024;-40
2021/03/06 03:29:44;;;;;;;6.78;2.95;;;;;;;-1.30;75.76;103473.16;5093702;28;20077;-40
2021/03/06 03:32:11;;;;;;;5.32;2.90;;;;;;;-1.17;78.16;103475.06;5093346;28;20417;-40
2021/03/06 03:34:38;;;;;;;8.45;2.65;;;;;;;-1.23;75.58;103475.44;5093956;28;20081;-40
2021/03/06 03:37:04;;;;;;;7.20;3.33;;;;;;;-1.30;75.62;103478.47;5093321;28;20418;-40
2021/03/06 03:39:31;;;;;;;6.85;2.47;;;;;;;-1.38;75.27;103472.72;5093651;28;20078;-40
2021/03/06 03:41:58;;;;;;;5.68;3.00;;;;;;;-1.53;73.22;103468.31;5093373;28;20024;-40
2021/03/06 03:44:24;;;;;;;6.18;2.92;;;;;;;-1.47;75.83;103469.75;5093935;28;20020;-40
2021/03/06 03:46:51;;;;;;;7.20;2.60;;;;;;;-1.58;74.68;103468.56;5093533;28;20028;-40
2021/03/06 03:49:18;;;;;;;6.78;2.78;;;;;;;-1.60;74.96;103473.13;5097449;28;20509;-40
2021/03/06 03:51:45;;;;;;;5.28;2.72;;;;;;;-1.61;74.03;103459.91;5097555;28;20055;-40
2021/03/06 03:54:12;;;;;;;;;;;;;;;-1.51;73.52;103458.47;5098001;28;20039;-40
2021/03/06 03:56:37;;;;;;;6.93;2.78;;;;;;;-1.72;74.26;103462.34;5096966;28;19912;-40
2021/03/06 03:59:03;;;;;;;4.47;2.80;;;;;;;-1.80;73.51;103461.94;5096806;28;20051;-40
2021/03/06 04:01:37;;;;;;;6.30;3.13;;;;;;;-1.83;74.45;103465.59;5097366;28;20043;-40
2021/03/06 04:04:05;;;;;;;8.00;2.83;;;;;;;-1.89;75.80;103468.59;5097587;28;20107;-40
2021/03/06 04:06:31;;;;;;;7.57;3.10;;;;;;;-1.94;75.40;103468.00;5096492;28;20031;-40
2021/03/06 04:08:56;;;;;;;6.17;2.63;;;;;;;-1.91;75.83;103467.81;5097469;28;20111;-40
2021/03/06 04:11:21;;;;;;;6.63;2.47;;;;;;;-1.92;75.26;103466.09;5097438;28;20091;-40
2021/03/06 04:13:46;;;;;;;8.40;2.70;;;;;;;-1.97;73.95;103466.38;5096865;28;20471;-39
2021/03/06 04:16:12;;;;;;;7.80;2.70;;;;;;;-2.00;73.08;103468.31;5097140;28;20443;-40
2021/03/06 04:18:37;;;;;;;6.73;2.47;;;;;;;-2.01;73.94;103466.63;5097153;28;20032;-40
2021/03/06 04:21:03;;;;;;;9.20;2.63;;;;;;;-2.01;74.65;103472.78;5097663;28;20020;-40
2021/03/06 04:23:28;;;;;;;9.97;3.00;;;;;;;-2.07;75.17;103465.16;5096732;28;20027;-40
2021/03/06 04:25:53;;;;;;;4.47;2.70;;;;;;;-2.05;76.29;103471.22;5097200;28;20024;-40
2021/03/06 04:28:19;;;;;;;6.73;3.53;;;;;;;-2.08;75.76;103472.25;5096515;28;20028;-40
2021/03/06 04:30:44;;;;;;;6.40;2.90;;;;;;;-2.15;73.93;103477.97;5096951;28;20032;-40
2021/03/06 04:33:10;;;;;;;7.73;2.63;;;;;;;-2.19;74.84;103489.72;5095537;28;20028;-40
2021/03/06 04:35:35;;;;;;;7.67;2.97;;;;;;;-2.27;72.68;103491.91;5096564;28;20163;-40
2021/03/06 04:38:00;;;;;;;6.87;2.97;;;;;;;-2.31;74.29;103490.34;5095713;28;20043;-40
2021/03/06 04:40:26;;;;;;;9.53;2.77;;;;;;;-2.35;75.32;103489.66;5097278;28;20027;-40
2021/03/06 04:42:51;;;;;;;7.93;3.23;;;;;;;-2.45;74.97;103485.78;5096462;28;20472;-40
2021/03/06 04:45:16;;;;;;;5.97;2.57;;;;;;;-2.38;77.19;103495.13;5095279;28;20124;-40
2021/03/06 04:47:45;;;;;;;9.13;2.70;;;;;;;-2.34;76.90;103502.84;5095949;28;20495;-40
2021/03/06 04:50:12;;;;;;;8.55;3.30;;;;;;;-2.36;75.85;103503.84;5096238;28;20024;-40
2021/03/06 04:52:37;;;;;;;7.30;2.78;;;;;;;-2.47;74.71;103504.41;5096176;28;20376;-40
2021/03/06 04:55:04;;;;;;;5.97;2.45;;;;;;;-2.52;75.66;103502.97;5096126;28;20020;-40
2021/03/06 04:57:29;;;;;;;;;;;;;;;-2.47;74.78;103501.78;5096427;28;20024;-40
2021/03/06 04:59:54;;;;;;;8.23;3.35;;;;;;;-2.63;77.76;103503.53;5095277;28;20022;-40
2021/03/06 05:02:20;;;;;;;10.00;2.97;;;;;;;-2.56;78.53;103506.69;5095968;28;20020;-40
2021/03/06 05:04:45;;;;;;;9.53;3.07;;;;;;;-2.54;77.08;103504.81;5096199;28;20028;-40
2021/03/06 05:07:10;;;;;;;8.77;3.07;;;;;;;-2.52;76.80;103505.59;5095479;28;20032;-40
2021/03/06 05:09:36;;;;;;;8.13;3.03;;;;;;;-2.40;78.54;103500.50;5096700;28;20115;-40
2021/03/06 05:12:01;;;;;;;7.97;2.70;;;;;;;-2.47;76.92;103501.78;5095790;28;20114;-40
2021/03/06 05:14:26;;;;;;;9.30;3.03;;;;;;;-2.53;76.39;103501.25;5096576;28;20318;-40
2021/03/06 05:16:52;;;;;;;7.40;2.90;;;;;;;-2.54;78.02;103515.41;5095709;28;20051;-40
2021/03/06 05:19:17;;;;;;;8.83;3.23;;;;;;;-2.44;79.99;103508.69;5095719;28;20063;-40
2021/03/06 05:21:42;;;;;;;8.57;3.20;;;;;;;-2.54;77.06;103510.97;5095668;28;20119;-40
2021/03/06 05:24:08;;;;;;;7.90;3.30;;;;;;;-2.46;77.27;103514.06;5095667;28;20395;-40
2021/03/06 05:26:33;;;;;;;6.78;3.03;;;;;;;-2.47;77.60;103512.38;5095267;28;20101;-40
2021/03/06 05:28:59;;;;;;;7.27;3.67;;;;;;;-2.50;76.74;103517.81;5095271;28;20063;-40
2021/03/06 05:31:24;;;;;;;6.53;3.23;;;;;;;-2.55;76.33;103508.41;5095100;28;20028;-40
2021/03/06 05:33:49;;;;;;;5.63;2.80;;;;;;;-2.54;77.48;103508.31;5095737;28;20107;-39
2021/03/06 05:36:15;;;;;;;12.10;3.70;;;;;;;-2.60;77.25;103513.94;5095555;28;20080;-39
2021/03/06 05:38:40;;;;;;;6.07;2.70;;;;;;;-2.56;77.42;103510.19;5095848;28;20039;-39
2021/03/06 05:41:06;;;;;;;6.80;3.10;;;;;;;-2.63;74.83;103522.06;5095300;28;20107;-39
2021/03/06 05:43:31;;;;;;;8.17;2.87;;;;;;;-2.67;75.60;103526.66;5095416;28;20044;-39
2021/03/06 05:45:57;;;;;;;15.57;3.27;;;;;;;-2.65;77.02;103518.63;5094773;28;20337;-39
2021/03/06 05:48:22;;;;;;;8.07;3.40;;;;;;;-2.61;76.89;103518.38;5094788;28;20028;-40
2021/03/06 05:50:50;;;;;;;7.40;3.43;;;;;;;-2.65;74.81;103521.28;5095119;28;20058;-39
2021/03/06 05:53:15;;;;;;;11.60;4.15;;;;;;;-2.73;75.54;103526.97;5095442;28;20479;-39
2021/03/06 05:55:48;;;;;;;7.32;3.35;;;;;;;-2.68;77.66;103521.44;5094654;28;20035;-39
2021/03/06 05:58:16;;;;;;;9.70;3.70;;;;;;;-2.70;77.63;103520.66;5094915;28;20043;-39
2021/03/06 06:00:42;;;;;;;10.45;3.67;;;;;;;-2.72;77.19;103519.88;5094672;28;20036;-39
2021/03/06 06:03:09;;;;;;;7.50;3.35;;;;;;;-2.64;78.66;103515.03;5094485;28;20035;-40
2021/03/06 06:05:34;;;;;;;8.75;3.33;;;;;;;-2.58;79.15;103512.09;5095343;28;20059;-40
2021/03/06 06:08:02;;;;;;;7.80;3.53;;;;;;;-2.61;76.99;103520.19;5094918;28;20157;-40
2021/03/06 06:10:30;;;;;;;7.18;3.38;;;;;;;-2.70;76.06;103521.50;5094276;28;20500;-40
2021/03/06 06:12:56;;;;;;;9.52;3.08;;;;;;;-2.77;76.38;103529.88;5095067;28;20055;-40
2021/03/06 06:15:21;;;;;;;10.63;3.53;;;;;;;-2.90;76.79;103522.53;5094240;28;20067;-40
2021/03/06 06:17:46;;;;;;;9.57;3.50;;;;;;;-2.79;77.75;103524.63;5094587;28;20054;-40
2021/03/06 06:20:16;;;;;;;8.50;3.90;;;;;;;-2.65;79.56;103530.06;5094804;28;20061;-40
2021/03/06 06:22:41;;;;;;;14.23;4.72;;;;;;;-2.73;77.70;103537.56;5093070;28;20036;-41
2021/03/06 06:25:07;;;;;;;10.63;3.50;;;;;;;-2.63;78.22;103532.66;5094177;28;20077;-40
2021/03/06 06:27:33;;;;;;;8.90;3.80;;;;;;;-2.61;78.16;103541.38;5094172;28;20031;-40
2021/03/06 06:30:01;;;;;;;7.80;3.58;;;;;;;-2.51;79.36;103536.47;5095118;28;20367;-40
2021/03/06 06:32:40;;;;;;;8.77;3.75;;;;;;;-2.45;80.26;103547.59;5094243;28;20085;-40
2021/03/06 06:35:07;;;;;;;8.50;3.85;;;;;;;-2.54;76.44;103542.75;5094231;28;20103;-40
2021/03/06 06:37:33;;;;;;;8.02;4.88;;;;;;;-2.43;77.86;103548.38;5094371;28;20031;-40
2021/03/06 06:40:00;;;;;;;9.23;4.95;;;;;;;-2.44;76.88;103548.44;5094218;28;20028;-40
2021/03/06 06:42:33;;;;;;;7.20;3.92;;;;;;;-2.41;77.60;103543.84;5094093;28;20028;-40
2021/03/06 06:44:59;;;;;;;8.38;5.53;;;;;;;-2.40;77.63;103544.69;5094148;28;20035;-40
2021/03/06 06:47:33;;;;;;;11.48;5.85;;;;;;;-2.35;77.59;103556.75;5093807;28;20028;-40
2021/03/06 06:49:58;;;;;;;10.40;5.22;;;;;;;-2.22;80.13;103554.34;5093721;28;20038;-40
2021/03/06 06:52:24;;;;;;;7.60;4.27;;;;;;;-2.21;78.46;103550.75;5093960;28;20020;-40
2021/03/06 06:54:55;;;;;;;10.73;4.37;;;;;;;-2.19;78.36;103550.69;5094214;28;20056;-40
2021/03/06 06:57:22;;;;;;;8.23;4.13;;;;;;;-2.04;79.38;103556.97;5094113;28;20086;-40
2021/03/06 07:00:08;;;;;;;10.23;4.60;;;;;;;-2.00;78.78;103555.81;5092491;28;20577;-40
2021/03/06 07:02:34;;;;;;;10.88;5.25;;;;;;;-1.96;77.73;103560.88;5093814;28;20119;-40
2021/03/06 07:05:04;;;;;;;12.75;5.45;;;;;;;-1.93;77.53;103563.38;5092592;28;20059;-40
2021/03/06 07:07:38;;;;;;;10.88;5.15;;;;;;;-1.82;78.56;103574.25;5093640;28;20026;-40
2021/03/06 07:10:14;;;;;;;9.20;5.30;;;;;;;-1.82;77.55;103582.22;5093992;28;20020;-40
2021/03/06 07:12:55;;;;;;;8.98;4.63;;;;;;;-1.77;77.10;103571.34;5093817;28;20376;-40
2021/03/06 07:15:23;;;;;;;9.73;5.65;;;;;;;-1.66;78.40;103576.06;5092069;28;20026;-40
2021/03/06 07:17:51;;;;;;;10.45;5.40;;;;;;;-1.64;76.91;103582.16;5093561;28;20036;-40
2021/03/06 07:20:28;;;;;;;9.25;5.88;;;;;;;-1.38;80.31;103578.91;5093635;28;20348;-40
2021/03/06 07:22:56;;;;;;;19.50;5.50;;;;;;;-1.20;80.66;103577.03;5092485;28;20039;-40
2021/03/06 07:25:23;;;;;;;11.10;5.30;;;;;;;-1.17;78.82;103583.94;5093207;28;20468;-40
2021/03/06 07:27:48;;;;;;;9.95;5.45;;;;;;;-1.06;79.19;103593.03;5093305;28;20036;-40
2021/03/06 07:30:16;;;;;;;11.50;5.50;;;;;;;-0.91;79.85;103593.09;5093746;28;20036;-40
2021/03/06 07:32:44;;;;;;;12.90;5.07;;;;;;;-0.79;78.68;103595.88;5092649;28;20073;-40
2021/03/06 07:35:12;;;;;;;9.75;5.63;;;;;;;-0.77;77.29;103600.28;5093782;28;20059;-40
2021/03/06 07:37:38;;;;;;;9.07;4.50;;;;;;;-0.64;78.32;103594.13;5093045;28;20085;-40
2021/03/06 07:40:07;;;;;;;9.75;4.75;;;;;;;-0.57;77.56;103602.59;5093351;28;20031;-40
2021/03/06 07:42:42;;;;;;;10.38;4.45;;;;;;;-0.50;76.75;103595.13;5092974;28;20020;-40
2021/03/06 07:45:10;;;;;;;9.90;4.28;;;;;;;-0.43;77.47;103591.16;5093653;28;20028;-40
2021/03/06 07:47:40;;;;;;;10.88;4.40;;;;;;;-0.27;80.16;103594.59;5093029;28;20020;-40
2021/03/06 07:50:27;;;;;;;10.90;4.55;;;;;;;-0.24;78.95;103596.19;5093821;28;20028;-40
2021/03/06 07:52:54;;;;;;;8.77;4.50;;;;;;;-0.13;79.20;103609.72;5093080;28;20115;-41
2021/03/06 07:55:20;;;;;;;8.05;4.25;;;;;;;-0.08;78.06;103592.53;5093334;28;20446;-40
2021/03/06 07:58:04;;;;;;;9.95;3.90;;;;;;;-0.01;77.43;103603.63;5093317;28;20037;-40
2021/03/06 08:00:53;;;;;;;7.72;3.92;;;;;;;0.01;77.14;103599.09;5093523;28;20051;-41
2021/03/06 08:03:28;;;;;;;6.63;3.90;;;;;;;0.07;77.57;103598.72;5093184;28;20036;-41
2021/03/06 08:05:58;;;;;;;12.20;4.63;;;;;;;0.19;77.78;103597.94;5093267;28;20046;-40
2021/03/06 08:08:32;;;;;;;9.68;4.60;;;;;;;0.30;77.38;103593.78;5091830;28;20032;-41
2021/03/06 08:11:11;;;;;;;10.68;4.03;;;;;;;0.43;76.98;103592.88;5093216;28;20055;-41
2021/03/06 08:13:46;;;;;;;7.90;4.40;;;;;;;0.47;78.26;103589.06;5092891;28;20028;-40
2021/03/06 08:16:24;;;;;;;13.80;4.40;;;;;;;0.49;77.41;103589.00;5092334;28;20040;-40
2021/03/06 08:19:08;;;;;;;10.30;4.40;;;;;;;0.67;77.33;103589.59;5093001;28;20491;-40
2021/03/06 08:21:35;;;;;;;11.77;4.20;;;;;;;0.71;76.12;103581.31;5092777;28;20020;-40
2021/03/06 08:24:12;;;;;;;13.32;4.53;;;;;;;0.85;76.72;103582.22;5093037;28;20165;-40
2021/03/06 08:26:39;;;;;;;9.43;4.25;;;;;;;0.94;75.69;103585.16;5091675;28;20399;-40
2021/03/06 08:29:27;;;;;;;9.80;4.10;;;;;;;1.01;76.19;103582.91;5093378;28;20116;-40
2021/03/06 08:32:06;;;;;;;11.80;3.70;;;;;;;1.02;75.41;103585.50;5087399;28;20032;-40
2021/03/06 08:34:54;;;;;;;11.23;3.70;;;;;;;1.09;75.10;103579.75;5095376;28;20035;-40
2021/03/06 08:37:19;;;;;;;10.88;4.05;;;;;;;1.15;75.86;103577.53;5096859;28;20032;-41
2021/03/06 08:40:03;;;;;;;9.43;4.00;;;;;;;1.23;76.02;103588.56;5097133;28;20537;-40
2021/03/06 08:42:34;;;;;;;9.15;3.55;;;;;;;1.31;75.13;103587.16;5096774;28;20066;-40
2021/03/06 08:45:07;;;;;;;9.65;3.70;;;;;;;1.39;76.13;103588.38;5096200;28;20038;-40
2021/03/06 08:47:38;;;;;;;10.63;4.22;;;;;;;1.46;76.17;103589.66;5096128;28;20027;-40
2021/03/06 08:50:20;;;;;;;9.98;4.18;;;;;;;1.63;75.80;103588.50;5096343;28;20035;-40
2021/03/06 08:52:53;;;;;;;7.35;3.30;;;;;;;1.75;75.44;103586.78;5097112;28;20431;-40
2021/03/06 08:55:21;;;;;;;10.48;3.67;;;;;;;1.77;74.20;103585.75;5096242;28;20032;-40
2021/03/06 08:57:46;;;;;;;9.13;3.67;;;;;;;1.93;74.66;103582.00;5096982;28;20031;-41
2021/03/06 09:00:25;;;;;;;10.03;4.10;;;;;;;2.03;74.82;103591.06;5096538;28;20048;-41
2021/03/06 09:02:51;;;;;;;7.85;3.70;;;;;;;2.18;75.12;103581.97;5096082;28;20069;-41
2021/03/06 09:05:21;;;;;;;11.35;3.75;;;;;;;2.22;73.29;103591.47;5096086;28;20024;-40
2021/03/06 09:07:48;;;;;;;10.32;3.38;;;;;;;2.30;73.02;103588.28;5095895;28;20028;-40
2021/03/06 09:10:22;;;;;;;7.75;3.63;;;;;;;2.35;73.30;103583.47;5095994;28;20032;-41
2021/03/06 09:12:50;;;;;;;7.28;3.42;;;;;;;2.52;73.28;103588.41;5096213;28;20020;-40
2021/03/06 09:15:31;;;;;;;10.27;3.53;;;;;;;2.63;73.36;103576.09;5096174;28;20392;-40
2021/03/06 09:17:57;;;;;;;9.60;3.80;;;;;;;2.74;71.48;103582.38;5096069;28;20028;-41
2021/03/06 09:20:24;;;;;;;11.93;3.47;;;;;;;2.80;70.96;103587.28;5096188;28;20020;-40
2021/03/06 09:22:50;;;;;;;8.38;3.10;;;;;;;2.83;69.29;103586.16;5095648;28;20031;-40
2021/03/06 09:25:34;;;;;;;6.90;3.03;;;;;;;2.94;69.85;103575.56;5095448;28;20024;-40
2021/03/06 09:28:00;;;;;;;9.25;3.22;;;;;;;3.07;68.80;103578.16;5095048;28;20020;-40
2021/03/06 09:30:30;;;;;;;8.05;2.70;;;;;;;3.11;67.22;103574.28;5095892;28;20062;-40
2021/03/06 09:32:57;;;;;;;6.70;2.63;;;;;;;3.18;66.74;103577.38;5095573;28;20027;-40
2021/03/06 09:35:23;;;;;;;16.63;3.08;;;;;;;3.24;65.45;103580.41;5096057;28;20024;-41
2021/03/06 09:38:10;;;;;;;10.18;2.95;;;;;;;3.33;66.59;103578.88;5095437;28;20437;-41
2021/03/06 09:40:44;;;;;;;6.88;2.25;;;;;;;3.40;64.90;103576.59;5095437;28;20028;-40
2021/03/06 09:43:13;;;;;;;6.15;1.95;;;;;;;3.41;63.43;103575.59;5095319;28;20020;-41
2021/03/06 09:45:38;;;;;;;8.90;2.22;;;;;;;3.52;63.98;103576.50;5094846;28;20023;-41
2021/03/06 09:48:07;;;;;;;17.23;3.92;;;;;;;3.59;63.04;103572.38;5094808;28;20078;-41
2021/03/06 09:50:32;;;;;;;5.35;1.73;;;;;;;3.63;62.05;103559.63;5095195;28;20069;-40
2021/03/06 09:53:10;;;;;;;4.63;1.43;;;;;;;3.77;61.95;103556.72;5095653;28;20024;-41
2021/03/06 09:55:35;;;;;;;7.82;1.60;;;;;;;3.91;60.44;103568.19;5094848;28;20107;-41
2021/03/06 09:58:15;;;;;;;7.67;2.00;;;;;;;3.99;60.93;103571.09;5094748;28;20070;-41
2021/03/06 10:00:40;;;;;;;6.68;1.52;;;;;;;3.96;58.22;103564.16;5095522;28;20044;-40
2021/03/06 10:03:06;;;;;;;4.23;1.30;;;;;;;4.04;59.14;103563.53;5095243;28;20050;-41
2021/03/06 10:05:31;;;;;;;5.67;1.60;;;;;;;4.14;59.53;103568.03;5094663;28;20491;-41
2021/03/06 10:07:57;;;;;;;7.60;1.73;;;;;;;4.26;60.24;103563.53;5094492;28;20035;-41
2021/03/06 10:10:26;;;;;;;7.65;1.40;;;;;;;4.26;57.72;103562.69;5094812;28;20028;-41
2021/03/06 10:12:52;;;;;;;7.10;1.73;;;;;;;4.35;58.35;103562.81;5094697;28;20058;-41
2021/03/06 10:15:19;;;;;;;7.68;1.55;;;;;;;4.44;57.79;103558.53;5094674;28;20060;-41
2021/03/06 10:17:45;;;;;;;;;;;;;;;4.58;59.57;103557.38;5095082;28;20031;-41
2021/03/06 10:20:11;;;;;;;7.25;1.20;;;;;;;4.74;57.14;103562.38;5094338;28;20308;-41
2021/03/06 10:22:44;;;;;;;4.68;1.33;;;;;;;4.81;56.63;103559.03;5094294;28;20036;-41
2021/03/06 10:25:11;;;;;;;4.43;1.58;;;;;;;4.81;55.70;103553.69;5094511;28;20024;-40
2021/03/06 10:27:37;;;;;;;10.05;1.48;;;;;;;4.93;55.91;103556.31;5094006;28;20140;-41
2021/03/06 10:30:27;;;;;;;5.80;1.17;;;;;;;4.90;55.55;103555.59;5095252;28;20433;-48
2021/03/06 10:33:02;;;;;;;4.30;1.23;;;;;;;4.71;54.86;103552.72;5052467;28;20040;-41
2021/03/06 10:35:39;;;;;;;6.72;1.30;;;;;;;4.99;55.41;103550.47;5052514;28;20045;-41
2021/03/06 10:38:07;;;;;;;4.40;1.35;;;;;;;4.86;54.11;103555.97;5051778;28;20041;-41
2021/03/06 10:40:44;;;;;;;6.30;2.13;;;;;;;4.78;53.84;103559.31;5052372;28;20037;-41
2021/03/06 10:43:11;;;;;;;8.48;1.98;;;;;;;4.65;54.73;103546.06;5051519;28;20059;-41
2021/03/06 10:45:39;;;;;;;4.22;1.10;;;;;;;4.59;54.89;103541.22;5051807;28;20024;-40
2021/03/06 10:48:06;;;;;;;3.75;1.38;;;;;;;4.68;54.38;103547.63;5051618;28;20029;-40
2021/03/06 10:50:36;;;;;;;3.20;1.10;;;;;;;4.88;54.23;103538.81;5051898;28;20362;-40
2021/03/06 10:53:19;;;;;;;4.78;1.30;;;;;;;5.12;53.30;103535.91;5051114;28;20025;-40
2021/03/06 10:55:47;;;;;;;4.93;1.40;;;;;;;5.30;51.91;103537.97;5051841;28;20094;-40
2021/03/06 10:58:13;;;;;;;4.68;1.38;;;;;;;5.25;52.03;103540.22;5051075;28;20037;-40
2021/03/06 11:00:39;;;;;;;;;;;;;;;5.52;53.85;103540.53;5051329;28;20136;-40
2021/03/06 11:03:06;;;;;;;7.32;1.35;;;;;;;5.74;52.58;103539.53;5051269;28;20269;-40
2021/03/06 11:05:32;;;;;;;6.22;1.75;;;;;;;5.92;52.77;103529.06;5051316;28;20172;-40
2021/03/06 11:08:17;;;;;;;9.02;1.60;;;;;;;5.97;50.84;103531.34;5051004;28;20032;-40
2021/03/06 11:10:45;;;;;;;2.78;1.27;;;;;;;5.99;51.04;103523.97;5087926;28;20036;-40
2021/03/06 11:13:11;;;;;;;8.80;1.58;;;;;;;6.21;51.56;103526.47;5092308;28;20031;-40
2021/03/06 11:15:51;;;;;;;3.70;1.70;;;;;;;6.33;50.41;103525.38;5093475;28;20020;-40
2021/03/06 11:18:18;;;;;;;5.05;1.35;;;;;;;6.36;50.28;103511.66;5093363;28;20065;-40
2021/03/06 11:20:45;;;;;;;5.40;2.13;;;;;;;6.47;49.93;103504.47;5094478;28;20047;-40
2021/03/06 11:23:10;;;;;;;6.35;2.45;;;;;;;6.25;48.57;103519.00;5092690;28;20369;-40
2021/03/06 11:25:35;;;;;;;6.00;1.80;;;;;;;6.49;51.49;103510.53;5093695;28;20161;-40
2021/03/06 11:28:09;;;;;;;7.40;2.33;;;;;;;6.55;51.43;103507.31;5091885;28;20517;-40
2021/03/06 11:30:43;;;;;;;5.18;1.50;;;;;;;6.61;51.54;103504.91;5093289;28;20250;-40
2021/03/06 11:33:11;;;;;;;4.13;1.33;;;;;;;6.70;49.70;103506.75;5093582;28;20027;-40
2021/03/06 11:35:38;;;;;;;6.82;1.83;;;;;;;6.60;48.63;103505.06;5094141;28;20046;-40